createdAt,value
2022-12-03T00:00:14.410Z,142.20
2022-12-03T00:01:14.406Z,138.40
2022-12-03T00:02:14.544Z,124.00
2022-12-03T00:03:14.584Z,126.10
2022-12-03T00:04:14.351Z,131.70
2022-12-03T00:05:14.327Z,128.20
2022-12-03T00:06:14.354Z,130.70
2022-12-03T00:07:14.331Z,126.90
2022-12-03T00:08:14.466Z,124.30
2022-12-03T00:09:14.275Z,134.70
2022-12-03T00:10:14.278Z,125.00
2022-12-03T00:11:14.265Z,122.40
2022-12-03T00:12:14.318Z,113.40
2022-12-03T00:13:14.264Z,127.90
2022-12-03T00:14:14.224Z,127.80
2022-12-03T00:15:14.195Z,113.20
2022-12-03T00:16:14.242Z,107.20
2022-12-03T00:17:14.158Z,110.50
2022-12-03T00:18:14.198Z,105.80
2022-12-03T00:19:14.150Z,103.00
2022-12-03T00:20:14.138Z,97.90
2022-12-03T00:21:14.119Z,100.70
2022-12-03T00:22:14.109Z,102.70
2022-12-03T00:23:14.116Z,94.70
2022-12-03T00:24:14.115Z,92.80
2022-12-03T00:25:14.061Z,95.00
2022-12-03T00:26:14.130Z,93.30
2022-12-03T00:27:14.064Z,96.10
2022-12-03T00:28:14.037Z,93.10
2022-12-03T00:29:14.117Z,92.90
2022-12-03T00:30:14.025Z,111.30
2022-12-03T00:31:14.071Z,121.00
2022-12-03T00:32:13.985Z,124.60
2022-12-03T00:33:13.960Z,122.90
2022-12-03T00:34:13.990Z,121.50
2022-12-03T00:35:13.939Z,105.30
2022-12-03T00:36:13.967Z,111.70
2022-12-03T00:37:13.912Z,105.40
2022-12-03T00:38:13.899Z,102.50
2022-12-03T00:39:13.906Z,96.50
2022-12-03T00:40:13.907Z,111.80
2022-12-03T00:41:13.857Z,143.80
2022-12-03T00:42:13.880Z,172.80
2022-12-03T00:43:13.847Z,193.50
2022-12-03T00:44:13.838Z,206.30
2022-12-03T00:45:13.802Z,144.90
2022-12-03T00:46:16.906Z,135.20
2022-12-03T00:47:13.986Z,158.20
2022-12-03T00:48:13.798Z,110.80
2022-12-03T00:49:13.748Z,98.90
2022-12-03T00:50:13.754Z,95.70
2022-12-03T00:51:13.753Z,99.30
2022-12-03T00:52:13.722Z,91.10
2022-12-03T00:53:13.696Z,97.60
2022-12-03T00:54:13.706Z,95.60
2022-12-03T00:55:13.695Z,90.40
2022-12-03T00:56:13.670Z,85.40
2022-12-03T00:57:13.651Z,88.70
2022-12-03T00:58:13.650Z,88.80
2022-12-03T00:59:13.623Z,91.70
2022-12-03T01:00:13.642Z,85.30
2022-12-03T01:01:13.660Z,89.50
2022-12-03T01:02:13.688Z,87.40
2022-12-03T01:03:13.570Z,81.40
2022-12-03T01:04:13.617Z,78.30
2022-12-03T01:05:13.608Z,89.50
2022-12-03T01:06:13.545Z,87.40
2022-12-03T01:07:13.550Z,93.60
2022-12-03T01:08:13.589Z,98.80
2022-12-03T01:09:13.490Z,86.70
2022-12-03T01:10:13.520Z,90.40
2022-12-03T01:11:13.494Z,94.70
2022-12-03T01:12:13.462Z,98.40
2022-12-03T01:13:13.466Z,94.30
2022-12-03T01:14:13.436Z,87.90
2022-12-03T01:15:13.422Z,84.80
2022-12-03T01:16:13.449Z,83.30
2022-12-03T01:17:13.395Z,88.90
2022-12-03T01:18:13.425Z,95.60
2022-12-03T01:19:13.382Z,108.30
2022-12-03T01:20:13.363Z,122.30
2022-12-03T01:21:13.329Z,143.00
2022-12-03T01:22:13.371Z,130.60
2022-12-03T01:23:13.315Z,120.80
2022-12-03T01:24:13.333Z,102.40
2022-12-03T01:25:13.304Z,235.50
2022-12-03T01:26:13.279Z,294.50
2022-12-03T01:27:13.245Z,346.90
2022-12-03T01:28:13.284Z,292.70
2022-12-03T01:29:13.246Z,433.00
2022-12-03T01:30:13.220Z,343.10
2022-12-03T01:31:13.276Z,179.30
2022-12-03T01:32:13.203Z,225.10
2022-12-03T01:33:13.198Z,165.70
2022-12-03T01:34:13.171Z,243.70
2022-12-03T01:35:13.154Z,192.00
2022-12-03T01:36:13.162Z,237.00
2022-12-03T01:37:13.160Z,255.60
2022-12-03T01:38:13.127Z,257.20
2022-12-03T01:39:13.101Z,233.00
2022-12-03T01:40:13.117Z,236.30
2022-12-03T01:41:13.070Z,416.20
2022-12-03T01:42:13.090Z,366.00
2022-12-03T01:43:13.049Z,337.70
2022-12-03T01:44:13.050Z,445.00
2022-12-03T01:45:13.020Z,533.00
2022-12-03T01:46:13.112Z,391.20
2022-12-03T01:47:12.992Z,378.30
2022-12-03T01:48:12.991Z,344.20
2022-12-03T01:49:12.968Z,367.50
2022-12-03T01:50:12.960Z,380.40
2022-12-03T01:51:12.967Z,459.70
2022-12-03T01:52:12.963Z,439.90
2022-12-03T01:53:12.912Z,523.50
2022-12-03T01:54:12.914Z,465.30
2022-12-03T01:55:12.888Z,505.40
2022-12-03T01:56:12.909Z,443.00
2022-12-03T01:57:12.858Z,485.80
2022-12-03T01:58:12.862Z,332.30
2022-12-03T01:59:12.851Z,360.10
2022-12-03T02:00:12.842Z,312.10
2022-12-03T02:01:12.842Z,414.80
2022-12-03T02:02:12.916Z,401.80
2022-12-03T02:03:12.815Z,235.20
2022-12-03T02:04:12.853Z,311.70
2022-12-03T02:05:12.756Z,274.40
2022-12-03T02:06:12.759Z,306.40
2022-12-03T02:07:12.740Z,269.10
2022-12-03T02:08:12.779Z,224.90
2022-12-03T02:09:12.715Z,389.00
2022-12-03T02:10:12.701Z,374.10
2022-12-03T02:11:12.718Z,234.90
2022-12-03T02:12:12.681Z,219.00
2022-12-03T02:13:12.652Z,242.40
2022-12-03T02:14:12.652Z,165.60
2022-12-03T02:15:12.627Z,185.20
2022-12-03T02:16:12.750Z,225.90
2022-12-03T02:17:12.597Z,117.80
2022-12-03T02:18:12.592Z,172.60
2022-12-03T02:19:12.606Z,114.00
2022-12-03T02:20:12.573Z,112.50
2022-12-03T02:21:12.554Z,95.60
2022-12-03T02:22:12.553Z,84.30
2022-12-03T02:23:12.516Z,114.10
2022-12-03T02:24:12.545Z,130.40
2022-12-03T02:25:12.487Z,138.90
2022-12-03T02:26:12.565Z,160.20
2022-12-03T02:27:12.475Z,96.40
2022-12-03T02:28:12.460Z,150.60
2022-12-03T02:29:12.467Z,135.90
2022-12-03T02:30:12.437Z,172.80
2022-12-03T02:31:12.494Z,106.20
2022-12-03T02:32:12.418Z,88.60
2022-12-03T02:33:12.405Z,81.00
2022-12-03T02:34:12.410Z,91.70
2022-12-03T02:35:12.379Z,103.70
2022-12-03T02:36:12.379Z,139.20
2022-12-03T02:37:12.348Z,70.80
2022-12-03T02:38:12.325Z,67.50
2022-12-03T02:39:12.353Z,70.60
2022-12-03T02:40:12.298Z,74.60
2022-12-03T02:41:12.295Z,94.80
2022-12-03T02:42:12.271Z,62.10
2022-12-03T02:43:12.269Z,73.40
2022-12-03T02:44:12.292Z,68.80
2022-12-03T02:45:12.266Z,71.40
2022-12-03T02:46:12.289Z,68.10
2022-12-03T02:47:12.275Z,68.40
2022-12-03T02:48:12.233Z,69.00
2022-12-03T02:49:12.181Z,60.90
2022-12-03T02:50:12.193Z,71.60
2022-12-03T02:51:12.162Z,67.30
2022-12-03T02:52:12.146Z,67.20
2022-12-03T02:53:12.143Z,68.30
2022-12-03T02:54:12.148Z,60.80
2022-12-03T02:55:12.120Z,65.20
2022-12-03T02:56:12.082Z,62.40
2022-12-03T02:57:12.085Z,59.30
2022-12-03T02:58:12.072Z,55.40
2022-12-03T02:59:12.086Z,54.70
2022-12-03T03:00:12.035Z,50.80
2022-12-03T03:01:12.157Z,48.60
2022-12-03T03:02:12.084Z,52.10
2022-12-03T03:03:12.010Z,49.70
2022-12-03T03:04:12.025Z,50.20
2022-12-03T03:05:11.988Z,48.30
2022-12-03T03:06:11.962Z,51.10
2022-12-03T03:07:11.955Z,49.00
2022-12-03T03:08:11.993Z,51.20
2022-12-03T03:09:11.956Z,48.50
2022-12-03T03:10:11.905Z,47.30
2022-12-03T03:11:11.946Z,48.40
2022-12-03T03:12:11.933Z,46.00
2022-12-03T03:13:11.909Z,48.80
2022-12-03T03:14:11.856Z,44.70
2022-12-03T03:15:11.857Z,45.10
2022-12-03T03:16:11.896Z,48.40
2022-12-03T03:17:11.850Z,46.20
2022-12-03T03:18:11.804Z,50.30
2022-12-03T03:19:12.179Z,46.60
2022-12-03T03:20:11.775Z,46.00
2022-12-03T03:21:11.797Z,46.30
2022-12-03T03:22:11.770Z,42.70
2022-12-03T03:23:11.747Z,42.80
2022-12-03T03:24:11.720Z,41.10
2022-12-03T03:25:11.745Z,41.20
2022-12-03T03:26:11.693Z,40.60
2022-12-03T03:27:11.717Z,40.50
2022-12-03T03:28:11.671Z,44.10
2022-12-03T03:29:11.684Z,46.10
2022-12-03T03:30:11.644Z,45.00
2022-12-03T03:31:11.722Z,43.00
2022-12-03T03:32:11.703Z,43.70
2022-12-03T03:33:11.610Z,48.10
2022-12-03T03:34:11.620Z,46.60
2022-12-03T03:35:11.594Z,49.00
2022-12-03T03:36:11.612Z,52.50
2022-12-03T03:37:11.598Z,52.40
2022-12-03T03:38:11.533Z,55.30
2022-12-03T03:39:11.562Z,46.10
2022-12-03T03:40:11.525Z,47.60
2022-12-03T03:41:11.518Z,48.60
2022-12-03T03:42:11.489Z,134.80
2022-12-03T03:43:11.510Z,117.70
2022-12-03T03:44:11.466Z,55.70
2022-12-03T03:45:11.461Z,63.20
2022-12-03T03:46:11.495Z,54.50
2022-12-03T03:47:11.432Z,55.70
2022-12-03T03:48:11.433Z,74.60
2022-12-03T03:49:11.412Z,70.80
2022-12-03T03:50:11.515Z,67.10
2022-12-03T03:51:11.380Z,107.10
2022-12-03T03:52:11.386Z,106.20
2022-12-03T03:53:11.353Z,152.40
2022-12-03T03:54:11.332Z,118.80
2022-12-03T03:55:11.336Z,155.20
2022-12-03T03:56:11.304Z,142.00
2022-12-03T03:57:11.331Z,348.50
2022-12-03T03:58:11.286Z,314.60
2022-12-03T03:59:11.275Z,425.80
2022-12-03T04:00:11.281Z,325.70
2022-12-03T04:01:11.324Z,217.10
2022-12-03T04:02:11.224Z,146.00
2022-12-03T04:03:11.217Z,118.50
2022-12-03T04:04:11.269Z,106.70
2022-12-03T04:05:11.215Z,91.60
2022-12-03T04:06:11.217Z,105.00
2022-12-03T04:07:11.172Z,151.00
2022-12-03T04:08:11.291Z,147.20
2022-12-03T04:09:11.166Z,386.00
2022-12-03T04:10:11.122Z,346.50
2022-12-03T04:11:11.118Z,283.60
2022-12-03T04:12:11.097Z,234.10
2022-12-03T04:13:11.103Z,322.10
2022-12-03T04:14:11.069Z,254.40
2022-12-03T04:15:11.067Z,346.70
2022-12-03T04:16:11.095Z,398.00
2022-12-03T04:17:11.038Z,535.60
2022-12-03T04:18:11.046Z,443.10
2022-12-03T04:19:11.008Z,427.20
2022-12-03T04:20:10.984Z,378.10
2022-12-03T04:21:11.013Z,454.90
2022-12-03T04:22:10.960Z,551.50
2022-12-03T04:23:10.953Z,532.10
2022-12-03T04:24:10.973Z,230.90
2022-12-03T04:25:10.936Z,386.70
2022-12-03T04:26:10.918Z,318.80
2022-12-03T04:27:10.910Z,256.40
2022-12-03T04:28:10.883Z,213.20
2022-12-03T04:29:10.899Z,480.90
2022-12-03T04:30:10.862Z,288.10
2022-12-03T04:31:10.901Z,303.50
2022-12-03T04:32:10.850Z,179.00
2022-12-03T04:33:10.829Z,233.60
2022-12-03T04:34:10.857Z,177.90
2022-12-03T04:35:10.862Z,148.60
2022-12-03T04:36:10.776Z,136.10
2022-12-03T04:37:10.771Z,212.80
2022-12-03T04:38:10.757Z,217.60
2022-12-03T04:39:10.758Z,282.20
2022-12-03T04:40:10.760Z,264.80
2022-12-03T04:41:10.740Z,212.90
2022-12-03T04:42:10.722Z,196.50
2022-12-03T04:43:10.699Z,225.10
2022-12-03T04:44:10.673Z,353.10
2022-12-03T04:45:10.668Z,334.90
2022-12-03T04:46:10.715Z,273.30
2022-12-03T04:47:10.644Z,243.50
2022-12-03T04:48:10.655Z,328.00
2022-12-03T04:49:10.623Z,217.30
2022-12-03T04:50:10.632Z,290.70
2022-12-03T04:51:10.587Z,410.70
2022-12-03T04:52:10.573Z,310.50
2022-12-03T04:53:10.605Z,374.90
2022-12-03T04:54:10.540Z,432.40
2022-12-03T04:55:10.536Z,502.30
2022-12-03T04:56:10.520Z,349.40
2022-12-03T04:57:10.516Z,299.30
2022-12-03T04:58:10.493Z,238.60
2022-12-03T04:59:15.722Z,185.60
2022-12-03T05:00:10.499Z,218.30
2022-12-03T05:01:10.516Z,325.80
2022-12-03T05:02:10.453Z,204.10
2022-12-03T05:03:10.438Z,321.40
2022-12-03T05:04:10.419Z,225.90
2022-12-03T05:05:10.452Z,282.20
2022-12-03T05:06:10.398Z,333.90
2022-12-03T05:07:10.384Z,246.10
2022-12-03T05:08:10.444Z,202.10
2022-12-03T05:09:10.395Z,268.30
2022-12-03T05:10:10.340Z,213.00
2022-12-03T05:11:10.367Z,184.70
2022-12-03T05:12:10.334Z,139.20
2022-12-03T05:13:10.308Z,268.40
2022-12-03T05:14:10.283Z,204.50
2022-12-03T05:15:10.320Z,137.90
2022-12-03T05:16:10.392Z,125.80
2022-12-03T05:17:10.337Z,86.50
2022-12-03T05:18:10.232Z,105.80
2022-12-03T05:19:10.247Z,121.90
2022-12-03T05:20:10.198Z,137.60
2022-12-03T05:21:10.215Z,254.30
2022-12-03T05:22:10.206Z,331.00
2022-12-03T05:23:10.194Z,272.00
2022-12-03T05:24:10.183Z,250.30
2022-12-03T05:25:10.148Z,99.30
2022-12-03T05:26:10.121Z,59.90
2022-12-03T05:27:10.123Z,62.50
2022-12-03T05:28:10.101Z,50.60
2022-12-03T05:29:10.130Z,46.80
2022-12-03T05:30:10.081Z,48.50
2022-12-03T05:31:10.183Z,46.10
2022-12-03T05:32:10.051Z,47.90
2022-12-03T05:33:10.052Z,44.20
2022-12-03T05:34:10.033Z,43.20
2022-12-03T05:35:10.050Z,42.30
2022-12-03T05:36:10.023Z,43.10
2022-12-03T05:37:09.993Z,44.20
2022-12-03T05:38:09.978Z,44.30
2022-12-03T05:39:09.964Z,42.70
2022-12-03T05:40:09.969Z,42.60
2022-12-03T05:41:09.959Z,43.70
2022-12-03T05:42:09.944Z,46.10
2022-12-03T05:43:09.924Z,45.80
2022-12-03T05:44:09.900Z,45.20
2022-12-03T05:45:09.898Z,42.20
2022-12-03T05:46:09.929Z,42.00
2022-12-03T05:47:09.877Z,45.80
2022-12-03T05:48:09.846Z,43.70
2022-12-03T05:49:09.837Z,44.70
2022-12-03T05:50:09.817Z,41.60
2022-12-03T05:51:09.842Z,44.20
2022-12-03T05:52:09.832Z,44.10
2022-12-03T05:53:09.869Z,43.50
2022-12-03T05:54:09.768Z,39.70
2022-12-03T05:55:09.757Z,43.10
2022-12-03T05:56:09.780Z,40.90
2022-12-03T05:57:09.725Z,40.80
2022-12-03T05:58:09.733Z,43.60
2022-12-03T05:59:09.731Z,41.30
2022-12-03T06:00:09.708Z,40.20
2022-12-03T06:01:09.709Z,39.60
2022-12-03T06:02:09.726Z,38.00
2022-12-03T06:03:09.888Z,35.00
2022-12-03T06:04:09.768Z,35.10
2022-12-03T06:05:09.637Z,38.50
2022-12-03T06:06:09.618Z,35.60
2022-12-03T06:07:13.756Z,36.50
2022-12-03T06:08:09.630Z,45.00
2022-12-03T06:09:09.567Z,40.30
2022-12-03T06:10:09.552Z,40.80
2022-12-03T06:11:09.552Z,38.20
2022-12-03T06:12:09.555Z,40.30
2022-12-03T06:13:09.585Z,36.20
2022-12-03T06:14:09.502Z,38.20
2022-12-03T06:15:09.508Z,37.10
2022-12-03T06:16:09.591Z,39.10
2022-12-03T06:17:09.481Z,38.10
2022-12-03T06:18:09.659Z,40.20
2022-12-03T06:19:09.478Z,36.50
2022-12-03T06:20:09.424Z,37.00
2022-12-03T06:21:09.423Z,37.60
2022-12-03T06:22:09.397Z,36.40
2022-12-03T06:23:09.419Z,35.00
2022-12-03T06:24:09.371Z,39.80
2022-12-03T06:25:09.366Z,42.10
2022-12-03T06:26:09.355Z,38.40
2022-12-03T06:27:09.369Z,37.80
2022-12-03T06:28:09.312Z,40.30
2022-12-03T06:29:09.305Z,41.50
2022-12-03T06:30:09.293Z,42.40
2022-12-03T06:31:09.412Z,42.10
2022-12-03T06:32:09.273Z,41.20
2022-12-03T06:33:09.286Z,41.00
2022-12-03T06:34:09.241Z,41.00
2022-12-03T06:35:09.229Z,39.00
2022-12-03T06:36:09.228Z,37.70
2022-12-03T06:37:09.216Z,36.30
2022-12-03T06:38:09.214Z,38.60
2022-12-03T06:39:09.177Z,39.80
2022-12-03T06:40:09.175Z,43.30
2022-12-03T06:41:09.145Z,39.60
2022-12-03T06:42:09.150Z,42.50
2022-12-03T06:43:09.155Z,38.30
2022-12-03T06:44:09.113Z,42.10
2022-12-03T06:45:09.138Z,41.00
2022-12-03T06:46:09.173Z,41.90
2022-12-03T06:47:09.066Z,44.30
2022-12-03T06:48:09.086Z,56.70
2022-12-03T06:49:09.041Z,48.00
2022-12-03T06:50:09.047Z,46.40
2022-12-03T06:51:09.013Z,48.60
2022-12-03T06:52:09.011Z,48.70
2022-12-03T06:53:09.010Z,46.70
2022-12-03T06:54:09.010Z,47.70
2022-12-03T06:55:08.999Z,45.90
2022-12-03T06:56:08.990Z,42.70
2022-12-03T06:57:08.962Z,46.40
2022-12-03T06:58:08.937Z,46.00
2022-12-03T06:59:08.925Z,44.30
2022-12-03T07:00:08.914Z,45.30
2022-12-03T07:01:08.922Z,44.00
2022-12-03T07:02:08.994Z,44.50
2022-12-03T07:03:08.950Z,48.30
2022-12-03T07:04:08.856Z,43.90
2022-12-03T07:05:08.861Z,47.20
2022-12-03T07:06:08.827Z,52.40
2022-12-03T07:07:08.832Z,51.70
2022-12-03T07:08:08.894Z,49.90
2022-12-03T07:09:08.783Z,47.90
2022-12-03T07:10:08.814Z,41.20
2022-12-03T07:11:08.766Z,38.10
2022-12-03T07:12:08.767Z,41.10
2022-12-03T07:13:08.731Z,38.00
2022-12-03T07:14:08.724Z,41.20
2022-12-03T07:15:08.738Z,40.40
2022-12-03T07:16:08.775Z,42.20
2022-12-03T07:17:08.681Z,52.10
2022-12-03T07:18:08.678Z,48.50
2022-12-03T07:19:08.645Z,50.50
2022-12-03T07:20:08.682Z,45.80
2022-12-03T07:21:08.638Z,61.50
2022-12-03T07:22:08.681Z,53.80
2022-12-03T07:23:08.592Z,52.00
2022-12-03T07:24:08.622Z,52.50
2022-12-03T07:25:08.581Z,56.00
2022-12-03T07:26:08.561Z,50.20
2022-12-03T07:27:08.551Z,50.10
2022-12-03T07:28:08.541Z,51.50
2022-12-03T07:29:08.542Z,55.90
2022-12-03T07:30:08.533Z,63.00
2022-12-03T07:31:08.505Z,61.80
2022-12-03T07:32:08.582Z,62.80
2022-12-03T07:33:08.495Z,65.90
2022-12-03T07:34:08.463Z,62.30
2022-12-03T07:35:08.474Z,61.50
2022-12-03T07:36:08.476Z,65.40
2022-12-03T07:37:08.447Z,60.20
2022-12-03T07:38:08.450Z,64.20
2022-12-03T07:39:08.390Z,66.00
2022-12-03T07:40:08.410Z,67.60
2022-12-03T07:41:08.367Z,60.50
2022-12-03T07:42:08.412Z,65.90
2022-12-03T07:43:08.341Z,66.90
2022-12-03T07:44:13.976Z,66.30
2022-12-03T07:45:08.315Z,67.30
2022-12-03T07:46:08.448Z,74.20
2022-12-03T07:47:08.343Z,73.40
2022-12-03T07:48:08.312Z,68.90
2022-12-03T07:49:08.257Z,65.90
2022-12-03T07:50:08.257Z,56.50
2022-12-03T07:51:10.526Z,58.40
2022-12-03T07:52:08.269Z,58.10
2022-12-03T07:53:08.210Z,50.00
2022-12-03T07:54:08.206Z,50.80
2022-12-03T07:55:08.184Z,59.70
2022-12-03T07:56:08.184Z,230.40
2022-12-03T07:57:08.168Z,123.40
2022-12-03T07:58:08.151Z,96.70
2022-12-03T07:59:08.135Z,86.70
2022-12-03T08:00:08.121Z,74.20
2022-12-03T08:01:08.171Z,70.60
2022-12-03T08:02:08.214Z,65.50
2022-12-03T08:03:08.076Z,58.10
2022-12-03T08:04:08.076Z,56.40
2022-12-03T08:05:08.049Z,50.60
2022-12-03T08:06:08.052Z,52.50
2022-12-03T08:07:08.063Z,46.30
2022-12-03T08:08:08.348Z,48.90
2022-12-03T08:09:09.977Z,47.70
2022-12-03T08:10:07.999Z,47.60
2022-12-03T08:11:07.965Z,53.60
2022-12-03T08:12:07.978Z,56.90
2022-12-03T08:13:07.979Z,55.80
2022-12-03T08:14:07.943Z,58.20
2022-12-03T08:15:07.923Z,55.20
2022-12-03T08:16:07.948Z,58.80
2022-12-03T08:17:07.921Z,57.70
2022-12-03T08:18:07.887Z,56.20
2022-12-03T08:19:07.889Z,49.90
2022-12-03T08:20:07.866Z,48.30
2022-12-03T08:21:07.841Z,42.80
2022-12-03T08:22:07.884Z,48.80
2022-12-03T08:23:07.809Z,50.20
2022-12-03T08:24:07.820Z,46.60
2022-12-03T08:25:07.781Z,48.60
2022-12-03T08:26:07.778Z,52.50
2022-12-03T08:27:07.799Z,56.60
2022-12-03T08:28:07.884Z,58.60
2022-12-03T08:29:07.809Z,66.80
2022-12-03T08:30:07.725Z,69.30
2022-12-03T08:31:07.768Z,62.80
2022-12-03T08:32:07.832Z,59.70
2022-12-03T08:33:07.708Z,50.40
2022-12-03T08:34:07.681Z,56.80
2022-12-03T08:35:07.662Z,54.40
2022-12-03T08:36:07.651Z,53.80
2022-12-03T08:37:07.654Z,51.80
2022-12-03T08:38:07.629Z,54.00
2022-12-03T08:39:07.691Z,56.10
2022-12-03T08:40:07.596Z,55.50
2022-12-03T08:41:07.610Z,54.60
2022-12-03T08:42:13.440Z,51.20
2022-12-03T08:43:07.549Z,52.40
2022-12-03T08:44:07.583Z,48.80
2022-12-03T08:45:07.517Z,53.30
2022-12-03T08:46:07.586Z,70.70
2022-12-03T08:47:07.502Z,56.70
2022-12-03T08:48:07.511Z,44.20
2022-12-03T08:49:07.500Z,51.70
2022-12-03T08:50:07.473Z,48.90
2022-12-03T08:51:07.445Z,49.00
2022-12-03T08:52:07.449Z,45.40
2022-12-03T08:53:07.420Z,47.90
2022-12-03T08:54:07.453Z,52.60
2022-12-03T08:55:07.402Z,51.70
2022-12-03T08:56:07.385Z,47.30
2022-12-03T08:57:07.370Z,45.20
2022-12-03T08:58:07.390Z,43.70
2022-12-03T08:59:07.369Z,44.10
2022-12-03T09:00:07.348Z,42.00
2022-12-03T09:01:07.342Z,44.10
2022-12-03T09:02:07.331Z,68.70
2022-12-03T09:03:07.293Z,53.60
2022-12-03T09:04:07.366Z,49.20
2022-12-03T09:05:07.266Z,43.00
2022-12-03T09:06:07.267Z,42.60
2022-12-03T09:07:07.233Z,64.30
2022-12-03T09:08:07.365Z,65.80
2022-12-03T09:09:07.239Z,52.50
2022-12-03T09:10:07.218Z,48.70
2022-12-03T09:11:07.233Z,43.30
2022-12-03T09:12:07.219Z,82.50
2022-12-03T09:13:07.191Z,54.50
2022-12-03T09:14:07.145Z,43.30
2022-12-03T09:15:07.146Z,41.10
2022-12-03T09:16:07.142Z,40.40
2022-12-03T09:17:07.235Z,30.60
2022-12-03T09:18:07.125Z,27.60
2022-12-03T09:19:07.085Z,30.30
2022-12-03T09:20:07.074Z,29.20
2022-12-03T09:21:07.056Z,28.80
2022-12-03T09:22:07.073Z,26.50
2022-12-03T09:23:07.024Z,27.40
2022-12-03T09:24:07.016Z,26.10
2022-12-03T09:25:07.015Z,22.00
2022-12-03T09:26:07.006Z,22.20
2022-12-03T09:27:07.011Z,20.30
2022-12-03T09:28:06.967Z,20.20
2022-12-03T09:29:11.895Z,20.50
2022-12-03T09:30:06.947Z,19.00
2022-12-03T09:31:06.928Z,17.70
2022-12-03T09:32:07.049Z,17.80
2022-12-03T09:33:06.927Z,19.30
2022-12-03T09:34:06.893Z,18.70
2022-12-03T09:35:06.875Z,19.50
2022-12-03T09:36:06.886Z,19.10
2022-12-03T09:37:06.842Z,19.90
2022-12-03T09:38:06.880Z,18.60
2022-12-03T09:39:06.816Z,20.70
2022-12-03T09:40:06.828Z,21.30
2022-12-03T09:41:06.792Z,22.10
2022-12-03T09:42:06.779Z,27.30
2022-12-03T09:43:06.753Z,28.80
2022-12-03T09:44:09.662Z,25.90
2022-12-03T09:45:06.766Z,23.50
2022-12-03T09:46:06.794Z,23.50
2022-12-03T09:47:06.705Z,22.10
2022-12-03T09:48:06.697Z,20.40
2022-12-03T09:49:12.265Z,22.70
2022-12-03T09:50:06.681Z,22.60
2022-12-03T09:51:06.651Z,22.50
2022-12-03T09:52:06.648Z,20.80
2022-12-03T09:53:06.624Z,17.60
2022-12-03T09:54:06.834Z,16.90
2022-12-03T09:55:06.609Z,17.90
2022-12-03T09:56:06.622Z,16.60
2022-12-03T09:57:06.585Z,17.30
2022-12-03T09:58:06.590Z,16.50
2022-12-03T09:59:06.557Z,16.10
2022-12-03T10:00:06.541Z,16.90
2022-12-03T10:01:06.627Z,16.60
2022-12-03T10:02:06.583Z,13.90
2022-12-03T10:03:06.496Z,15.10
2022-12-03T10:04:06.549Z,15.90
2022-12-03T10:05:06.563Z,14.70
2022-12-03T10:06:06.488Z,15.00
2022-12-03T10:07:06.460Z,15.10
2022-12-03T10:08:06.508Z,14.60
2022-12-03T10:09:06.401Z,12.90
2022-12-03T10:10:06.406Z,15.20
2022-12-03T10:11:06.387Z,13.60
2022-12-03T10:12:06.414Z,14.40
2022-12-03T10:13:06.361Z,13.00
2022-12-03T10:14:06.387Z,15.90
2022-12-03T10:15:06.328Z,16.50
2022-12-03T10:16:06.351Z,15.90
2022-12-03T10:17:06.379Z,14.10
2022-12-03T10:18:06.299Z,13.30
2022-12-03T10:19:06.275Z,13.20
2022-12-03T10:20:06.292Z,17.40
2022-12-03T10:21:06.247Z,16.80
2022-12-03T10:22:06.244Z,16.50
2022-12-03T10:23:06.225Z,16.10
2022-12-03T10:24:06.243Z,16.00
2022-12-03T10:25:06.195Z,14.80
2022-12-03T10:26:06.190Z,14.20
2022-12-03T10:27:06.200Z,15.50
2022-12-03T10:28:06.171Z,16.70
2022-12-03T10:29:06.172Z,14.20
2022-12-03T10:30:06.137Z,15.20
2022-12-03T10:31:06.156Z,12.80
2022-12-03T10:32:06.109Z,21.50
2022-12-03T10:33:06.133Z,15.20
2022-12-03T10:34:06.086Z,15.40
2022-12-03T10:35:06.072Z,20.10
2022-12-03T10:36:06.049Z,17.50
2022-12-03T10:37:06.034Z,23.60
2022-12-03T10:38:06.057Z,14.30
2022-12-03T10:39:06.003Z,10.00
2022-12-03T10:40:06.014Z,10.20
2022-12-03T10:41:05.982Z,10.10
2022-12-03T10:42:05.961Z,12.00
2022-12-03T10:43:05.958Z,11.50
2022-12-03T10:44:05.975Z,11.70
2022-12-03T10:45:05.930Z,11.20
2022-12-03T10:46:05.949Z,12.00
2022-12-03T10:47:06.182Z,10.30
2022-12-03T10:48:05.887Z,10.80
2022-12-03T10:49:05.911Z,9.70
2022-12-03T10:50:05.859Z,10.30
2022-12-03T10:51:05.856Z,10.70
2022-12-03T10:52:05.866Z,11.00
2022-12-03T10:53:05.855Z,12.40
2022-12-03T10:54:05.803Z,12.40
2022-12-03T10:55:05.793Z,14.00
2022-12-03T10:56:05.773Z,14.80
2022-12-03T10:57:05.774Z,16.30
2022-12-03T10:58:05.768Z,17.10
2022-12-03T10:59:05.734Z,17.30
2022-12-03T11:00:05.711Z,18.20
2022-12-03T11:01:05.798Z,14.50
2022-12-03T11:02:05.766Z,16.40
2022-12-03T11:03:05.718Z,16.40
2022-12-03T11:04:05.798Z,12.50
2022-12-03T11:05:05.663Z,15.10
2022-12-03T11:06:05.638Z,12.10
2022-12-03T11:07:05.676Z,10.40
2022-12-03T11:08:05.694Z,9.70
2022-12-03T11:09:09.107Z,11.40
2022-12-03T11:10:05.596Z,10.30
2022-12-03T11:11:05.600Z,10.60
2022-12-03T11:12:05.586Z,10.60
2022-12-03T11:13:05.548Z,10.20
2022-12-03T11:14:05.550Z,10.10
2022-12-03T11:15:05.521Z,10.80
2022-12-03T11:16:05.635Z,12.20
2022-12-03T11:17:05.523Z,13.60
2022-12-03T11:18:05.499Z,11.20
2022-12-03T11:19:05.469Z,10.60
2022-12-03T11:20:05.442Z,10.00
2022-12-03T11:21:05.458Z,10.00
2022-12-03T11:22:05.532Z,11.80
2022-12-03T11:23:05.415Z,10.20
2022-12-03T11:24:05.399Z,10.40
2022-12-03T11:25:05.387Z,9.80
2022-12-03T11:26:05.377Z,12.00
2022-12-03T11:27:05.353Z,12.80
2022-12-03T11:28:05.362Z,17.00
2022-12-03T11:29:05.335Z,16.30
2022-12-03T11:30:05.317Z,16.80
2022-12-03T11:31:05.365Z,21.90
2022-12-03T11:32:05.284Z,19.20
2022-12-03T11:33:05.292Z,18.20
2022-12-03T11:34:05.291Z,19.80
2022-12-03T11:35:05.255Z,22.50
2022-12-03T11:36:05.240Z,27.60
2022-12-03T11:37:05.221Z,24.70
2022-12-03T11:38:05.227Z,29.40
2022-12-03T11:39:05.229Z,37.10
2022-12-03T11:40:05.178Z,35.70
2022-12-03T11:41:05.205Z,31.10
2022-12-03T11:42:05.148Z,28.30
2022-12-03T11:43:05.174Z,25.80
2022-12-03T11:44:05.138Z,17.10
2022-12-03T11:45:05.116Z,30.70
2022-12-03T11:46:05.120Z,28.80
2022-12-03T11:47:05.208Z,21.60
2022-12-03T11:48:05.072Z,27.60
2022-12-03T11:49:05.070Z,17.10
2022-12-03T11:50:05.059Z,19.00
2022-12-03T11:51:05.036Z,25.30
2022-12-03T11:52:05.009Z,25.20
2022-12-03T11:53:05.000Z,34.20
2022-12-03T11:54:05.025Z,22.30
2022-12-03T11:55:04.983Z,20.30
2022-12-03T11:56:04.954Z,23.50
2022-12-03T11:57:04.989Z,21.40
2022-12-03T11:58:04.942Z,18.90
2022-12-03T11:59:04.922Z,23.50
2022-12-03T12:00:04.932Z,16.20
2022-12-03T12:01:04.933Z,14.60
2022-12-03T12:02:04.875Z,17.50
2022-12-03T12:03:04.882Z,17.60
2022-12-03T12:04:04.910Z,15.70
2022-12-03T12:05:04.849Z,15.70
2022-12-03T12:06:04.858Z,17.80
2022-12-03T12:07:04.825Z,17.60
2022-12-03T12:08:04.840Z,14.60
2022-12-03T12:09:04.799Z,17.00
2022-12-03T12:10:04.789Z,15.80
2022-12-03T12:11:04.793Z,16.80
2022-12-03T12:12:04.755Z,16.60
2022-12-03T12:13:04.744Z,18.30
2022-12-03T12:14:04.748Z,17.70
2022-12-03T12:15:04.739Z,17.90
2022-12-03T12:16:04.737Z,23.80
2022-12-03T12:17:04.809Z,21.10
2022-12-03T12:18:04.700Z,23.40
2022-12-03T12:19:04.661Z,27.10
2022-12-03T12:20:04.631Z,24.20
2022-12-03T12:21:04.629Z,19.90
2022-12-03T12:22:04.638Z,24.50
2022-12-03T12:23:04.612Z,19.90
2022-12-03T12:24:04.589Z,19.30
2022-12-03T12:25:04.577Z,23.70
2022-12-03T12:26:04.584Z,23.60
2022-12-03T12:27:04.554Z,26.10
2022-12-03T12:28:04.533Z,31.10
2022-12-03T12:29:04.527Z,21.80
2022-12-03T12:30:04.527Z,18.70
2022-12-03T12:31:04.617Z,19.20
2022-12-03T12:32:04.537Z,18.60
2022-12-03T12:33:04.469Z,21.00
2022-12-03T12:34:04.447Z,20.00
2022-12-03T12:35:04.469Z,20.70
2022-12-03T12:36:04.426Z,22.20
2022-12-03T12:37:04.439Z,21.70
2022-12-03T12:38:04.396Z,21.00
2022-12-03T12:39:04.402Z,20.10
2022-12-03T12:40:04.390Z,19.80
2022-12-03T12:41:04.384Z,21.10
2022-12-03T12:42:04.347Z,20.30
2022-12-03T12:43:12.415Z,22.50
2022-12-03T12:44:04.324Z,18.80
2022-12-03T12:45:04.304Z,20.90
2022-12-03T12:46:24.965Z,19.10